Time;durP1;ratioP1;P1;durP2;ratioP2;P2;SDS_P1;SDS_P2;PMS_P1;PMS_P2;Temp;Humidity;BMP_temperature;BMP_pressure;BME280_temperature;BME280_humidity;BME280_pressure;Samples;Min_cycle;Max_cycle;Signal;HPM_P1;HPM_P2
2023/10/07 00:01:24;;;;;;;10.50;10.20;;;10.00;99.90;;;;;;5085775;28;20237;-83
2023/10/07 00:03:53;;;;;;;10.60;10.30;;;9.90;99.90;;;;;;5085395;28;20294;-84
2023/10/07 00:06:25;;;;;;;10.50;10.20;;;9.90;99.90;;;;;;5085653;28;20234;-84
2023/10/07 00:08:54;;;;;;;10.50;10.20;;;9.90;99.90;;;;;;5085129;28;20237;-84
2023/10/07 00:11:22;;;;;;;10.60;10.30;;;9.90;99.90;;;;;;5085340;28;20324;-83
2023/10/07 00:13:54;;;;;;;10.50;10.20;;;9.90;99.90;;;;;;5085398;28;20234;-83
2023/10/07 00:16:23;;;;;;;10.97;10.67;;;9.80;99.90;;;;;;5085109;28;20226;-83
2023/10/07 00:18:50;;;;;;;10.60;10.30;;;9.80;99.90;;;;;;5091427;28;20252;-84
2023/10/07 00:21:26;;;;;;;10.27;9.97;;;9.80;99.90;;;;;;5096398;28;20246;-84
2023/10/07 00:24:01;;;;;;;10.50;10.20;;;9.80;99.90;;;;;;5085019;28;20229;-84
2023/10/07 00:26:29;;;;;;;10.43;10.13;;;9.80;99.90;;;;;;5085414;28;20241;-84
2023/10/07 00:29:00;;;;;;;10.57;10.27;;;9.80;99.90;;;;;;5100916;28;20260;-83
2023/10/07 00:31:32;;;;;;;10.50;10.20;;;9.70;99.90;;;;;;5105568;28;20242;-84
2023/10/07 00:36:47;;;;;;;10.40;10.10;;;9.70;99.90;;;;;;5092282;28;20238;-84
2023/10/07 00:39:22;;;;;;;10.50;10.20;;;9.60;99.90;;;;;;5085639;28;20254;-84
2023/10/07 00:42:07;;;;;;;10.40;10.10;;;9.60;99.90;;;;;;5085064;28;20260;-84
2023/10/07 00:44:39;;;;;;;10.50;10.20;;;9.50;99.90;;;;;;5084640;28;20276;-84
2023/10/07 00:47:26;;;;;;;10.60;10.30;;;9.50;99.90;;;;;;5085068;28;20230;-84
2023/10/07 00:49:57;;;;;;;10.67;10.37;;;9.50;99.90;;;;;;5084997;28;20237;-83
2023/10/07 00:52:28;;;;;;;10.70;10.40;;;9.50;99.90;;;;;;5084615;28;20318;-84
2023/10/07 00:55:18;;;;;;;10.57;10.27;;;9.40;99.90;;;;;;5084841;28;20234;-84
2023/10/07 00:57:54;;;;;;;10.80;10.50;;;9.40;99.90;;;;;;5089906;28;20248;-84
2023/10/07 01:03:17;;;;;;;10.70;10.40;;;9.30;99.90;;;;;;5083125;28;20218;-84
2023/10/07 01:05:55;;;;;;;10.77;10.47;;;9.20;99.90;;;;;;5084209;28;20225;-84
2023/10/07 01:08:27;;;;;;;11.03;10.63;;;9.10;99.90;;;;;;5084512;28;20244;-84
2023/10/07 01:11:11;;;;;;;10.80;10.50;;;9.00;99.90;;;;;;5083856;28;20237;-84
2023/10/07 01:13:45;;;;;;;11.03;10.63;;;8.90;99.90;;;;;;5084113;28;20284;-84
2023/10/07 01:16:27;;;;;;;10.80;10.50;;;8.80;99.90;;;;;;5083930;28;20237;-83
2023/10/07 01:19:05;;;;;;;11.07;10.67;;;8.80;99.90;;;;;;5103773;28;20255;-85
2023/10/07 01:21:34;;;;;;;10.80;10.50;;;8.80;99.90;;;;;;5087222;28;20221;-84
2023/10/07 01:24:06;;;;;;;11.03;10.63;;;8.80;99.90;;;;;;5104723;28;20224;-84
2023/10/07 01:26:44;;;;;;;10.90;10.60;;;8.80;99.90;;;;;;5100912;28;20238;-84
2023/10/07 01:29:22;;;;;;;10.70;10.40;;;8.80;99.90;;;;;;5091024;28;20234;-83
2023/10/07 01:32:00;;;;;;;10.80;10.50;;;8.80;99.90;;;;;;5087291;28;20329;-84
2023/10/07 01:34:34;;;;;;;10.60;10.30;;;8.80;99.90;;;;;;5098168;28;20276;-84
2023/10/07 01:37:11;;;;;;;10.77;10.47;;;8.80;99.90;;;;;;5106728;28;20236;-84
2023/10/07 01:39:45;;;;;;;10.67;10.37;;;8.80;99.90;;;;;;5106770;28;20226;-84
2023/10/07 01:42:21;;;;;;;10.57;10.27;;;8.70;99.90;;;;;;5106738;28;20221;-84
2023/10/07 01:47:30;;;;;;;10.60;10.30;;;8.70;99.90;;;;;;5098277;27;20244;-84
2023/10/07 01:49:59;;;;;;;11.10;10.70;;;8.70;99.90;;;;;;5085143;28;20238;-84
2023/10/07 01:52:39;;;;;;;11.00;10.60;;;8.70;99.90;;;;;;5086079;28;20221;-84
2023/10/07 01:57:54;;;;;;;11.00;10.60;;;8.60;99.90;;;;;;5104155;27;20235;-84
2023/10/07 02:00:38;;;;;;;11.00;10.60;;;8.60;99.90;;;;;;5085159;28;20218;-84
2023/10/07 02:05:49;;;;;;;10.80;10.50;;;8.60;99.90;;;;;;5082265;28;20225;-84
2023/10/07 02:08:20;;;;;;;10.87;10.57;;;8.60;99.90;;;;;;5087356;28;20257;-84
2023/10/07 02:10:51;;;;;;;10.63;10.33;;;8.50;99.90;;;;;;5086090;28;20276;-84
2023/10/07 02:13:20;;;;;;;10.60;10.30;;;8.60;99.90;;;;;;5083894;28;20226;-84
2023/10/07 02:15:48;;;;;;;10.67;10.37;;;8.60;99.90;;;;;;5084270;28;20218;-84
2023/10/07 02:18:16;;;;;;;10.70;10.40;;;8.60;99.90;;;;;;5083297;28;20276;-85
2023/10/07 02:20:49;;;;;;;10.60;10.30;;;8.60;99.90;;;;;;5083717;28;20265;-84
2023/10/07 02:26:05;;;;;;;10.60;10.30;;;8.60;99.90;;;;;;5083696;28;20226;-84
2023/10/07 02:28:34;;;;;;;10.50;10.20;;;8.60;99.90;;;;;;5084196;28;20225;-84
2023/10/07 02:31:19;;;;;;;10.80;10.50;;;8.60;99.90;;;;;;5084870;28;20237;-84
2023/10/07 02:33:58;;;;;;;10.70;10.40;;;8.50;99.90;;;;;;5085783;28;20229;-84
2023/10/07 02:36:31;;;;;;;10.87;10.50;;;8.40;99.90;;;;;;5086693;28;20242;-84
2023/10/07 02:41:47;;;;;;;10.80;10.50;;;8.50;99.90;;;;;;5085833;28;20221;-84
2023/10/07 02:44:15;;;;;;;10.60;10.30;;;8.40;99.90;;;;;;5084756;28;20280;-84
2023/10/07 02:46:43;;;;;;;10.67;10.37;;;8.40;99.90;;;;;;5083495;28;20218;-85
2023/10/07 02:49:14;;;;;;;10.97;10.57;;;8.30;99.90;;;;;;5083757;28;20329;-84
2023/10/07 03:00:00;;;;;;;10.80;10.50;;;8.20;99.90;;;;;;5084513;28;20222;-84
2023/10/07 03:07:55;;;;;;;10.80;10.50;;;8.20;99.90;;;;;;5084624;28;20224;-84
2023/10/07 03:10:33;;;;;;;10.97;10.57;;;8.20;99.90;;;;;;5086271;28;20254;-84
2023/10/07 03:13:16;;;;;;;10.70;10.40;;;8.20;99.90;;;;;;5086289;28;20242;-84
2023/10/07 03:16:08;;;;;;;10.60;10.30;;;8.20;99.90;;;;;;5086023;28;20232;-84
2023/10/07 03:18:31;;;;;;;10.70;10.40;;;8.20;99.90;;;;;;5085332;28;20236;-84
2023/10/07 03:21:06;;;;;;;10.57;10.27;;;8.20;99.90;;;;;;5085853;28;20262;-84
2023/10/07 03:26:17;;;;;;;10.57;10.27;;;8.10;99.90;;;;;;5085699;28;20237;-84
2023/10/07 03:28:52;;;;;;;10.63;10.33;;;8.20;99.90;;;;;;5086412;28;20269;-84
2023/10/07 03:34:07;;;;;;;10.50;10.20;;;8.20;99.90;;;;;;5086080;28;20214;-84
2023/10/07 03:39:42;;;;;;;10.63;10.33;;;8.20;99.90;;;;;;5095351;28;20229;-84
2023/10/07 03:44:55;;;;;;;10.60;10.30;;;8.20;99.90;;;;;;5102988;27;20291;-84
2023/10/07 03:47:25;;;;;;;10.77;10.47;;;8.20;99.90;;;;;;5088104;28;20248;-84
2023/10/07 03:49:58;;;;;;;11.07;10.67;;;8.20;99.90;;;;;;5108150;28;20309;-84
2023/10/07 03:55:19;;;;;;;10.80;10.50;;;8.10;99.90;;;;;;5142572;27;1290275;-83
2023/10/07 03:57:46;;;;;;;10.77;10.47;;;8.10;99.90;;;;;;5182174;27;20245;-83
2023/10/07 04:00:16;;;;;;;10.80;10.50;;;8.10;99.90;;;;;;5182564;27;20248;-83
2023/10/07 04:02:45;;;;;;;10.80;10.50;;;8.00;99.90;;;;;;5182595;27;20245;-83
2023/10/07 04:05:14;;;;;;;11.10;10.70;;;8.00;99.90;;;;;;5183043;27;20225;-83
2023/10/07 04:07:43;;;;;;;11.07;10.67;;;8.00;99.90;;;;;;5182611;27;20227;-84
2023/10/07 04:10:21;;;;;;;10.83;10.50;;;7.90;99.90;;;;;;5182662;27;20234;-83
2023/10/07 04:15:51;;;;;;;10.93;10.53;;;7.90;99.90;;;;;;5182716;27;20223;-83
2023/10/07 04:18:22;;;;;;;10.73;10.43;;;7.90;99.90;;;;;;5182774;27;20234;-83
2023/10/07 04:20:57;;;;;;;10.60;10.30;;;7.80;99.90;;;;;;5182377;27;20287;-83
2023/10/07 04:23:25;;;;;;;10.80;10.50;;;7.70;99.90;;;;;;5183451;27;20222;-84
2023/10/07 04:25:56;;;;;;;10.67;10.37;;;7.70;99.90;;;;;;5182319;27;20233;-84
2023/10/07 04:28:26;;;;;;;10.70;10.40;;;7.70;99.90;;;;;;5140821;27;20258;-84
2023/10/07 04:30:54;;;;;;;10.80;10.50;;;7.70;99.90;;;;;;5141432;27;20215;-83
2023/10/07 04:33:32;;;;;;;10.50;10.20;;;7.70;99.90;;;;;;5141192;27;20212;-83
2023/10/07 04:36:04;;;;;;;10.50;10.20;;;7.60;99.90;;;;;;5142717;27;20224;-83
2023/10/07 04:38:52;;;;;;;10.67;10.37;;;7.70;99.90;;;;;;5144946;27;20220;-83
2023/10/07 04:41:32;;;;;;;10.50;10.20;;;7.70;99.90;;;;;;5149439;27;20228;-84
2023/10/07 04:44:20;;;;;;;10.87;10.57;;;7.70;99.90;;;;;;5145015;27;20255;-83
2023/10/07 04:46:56;;;;;;;10.63;10.33;;;7.70;99.90;;;;;;5145578;27;20232;-84
2023/10/07 04:52:10;;;;;;;10.60;10.30;;;7.80;99.90;;;;;;5144935;27;20235;-84
2023/10/07 04:54:36;;;;;;;10.60;10.30;;;7.70;99.90;;;;;;5144197;27;20288;-83
2023/10/07 04:57:39;;;;;;;10.63;10.33;;;7.80;99.90;;;;;;5145576;27;20231;-83
2023/10/07 05:00:08;;;;;;;10.80;10.50;;;7.80;99.90;;;;;;5143907;27;20266;-83
2023/10/07 05:02:35;;;;;;;10.40;10.10;;;7.80;99.90;;;;;;5144052;27;20221;-83
2023/10/07 05:05:10;;;;;;;10.17;9.87;;;7.80;99.90;;;;;;5138836;27;20264;-83
2023/10/07 05:07:38;;;;;;;10.40;10.10;;;7.80;99.90;;;;;;5129370;28;20330;-83
2023/10/07 05:10:07;;;;;;;10.70;10.40;;;7.90;99.90;;;;;;5133056;28;20253;-83
2023/10/07 05:15:21;;;;;;;10.67;10.37;;;7.90;99.90;;;;;;5131031;28;20229;-83
2023/10/07 05:17:52;;;;;;;10.70;10.40;;;7.90;99.90;;;;;;5129952;28;20255;-83
2023/10/07 05:20:28;;;;;;;10.53;10.23;;;7.90;99.90;;;;;;5130557;28;20237;-83
2023/10/07 05:22:55;;;;;;;10.70;10.40;;;7.90;99.90;;;;;;5129444;28;20227;-83
2023/10/07 05:25:23;;;;;;;10.73;10.43;;;7.80;99.90;;;;;;5129789;28;20243;-83
2023/10/07 05:27:55;;;;;;;10.60;10.30;;;7.80;99.90;;;;;;5128991;28;20240;-83
2023/10/07 05:33:11;;;;;;;10.57;10.27;;;7.90;99.90;;;;;;5130523;28;20263;-83
2023/10/07 05:35:40;;;;;;;10.57;10.27;;;7.90;99.90;;;;;;5135656;28;20330;-83
2023/10/07 05:38:10;;;;;;;10.60;10.30;;;7.90;99.90;;;;;;5132149;28;20241;-83
2023/10/07 05:40:40;;;;;;;10.60;10.30;;;7.90;99.90;;;;;;5131477;28;20228;-83
2023/10/07 05:43:08;;;;;;;10.43;10.13;;;7.90;99.90;;;;;;5129856;28;20244;-83
2023/10/07 05:45:45;;;;;;;10.67;10.37;;;7.90;99.90;;;;;;5128712;28;20282;-83
2023/10/07 05:48:16;;;;;;;10.70;10.40;;;7.90;99.90;;;;;;5128684;28;20232;-82
2023/10/07 05:50:45;;;;;;;10.73;10.43;;;7.90;99.90;;;;;;5129300;28;20247;-83
2023/10/07 05:53:15;;;;;;;10.80;10.50;;;7.80;99.90;;;;;;5130306;28;20229;-83
2023/10/07 05:55:44;;;;;;;10.60;10.30;;;7.80;99.90;;;;;;5128684;28;20209;-83
2023/10/07 05:58:14;;;;;;;10.63;10.33;;;7.80;99.90;;;;;;5128369;28;20260;-83
2023/10/07 06:00:46;;;;;;;10.70;10.40;;;7.70;99.90;;;;;;5129077;28;20237;-83
2023/10/07 06:03:13;;;;;;;10.40;10.10;;;7.70;99.90;;;;;;5128090;28;20229;-83
2023/10/07 06:05:42;;;;;;;10.43;10.13;;;7.70;99.90;;;;;;5129289;28;20229;-83
2023/10/07 06:08:10;;;;;;;10.30;10.00;;;7.70;99.90;;;;;;5128950;28;20228;-83
2023/10/07 06:10:44;;;;;;;10.27;9.97;;;7.70;99.90;;;;;;5128697;28;20292;-83
2023/10/07 06:13:14;;;;;;;10.37;10.07;;;7.80;99.90;;;;;;5129330;28;20229;-84
2023/10/07 06:15:45;;;;;;;10.40;10.10;;;7.90;99.90;;;;;;5129309;28;20292;-83
2023/10/07 06:21:11;;;;;;;10.30;10.00;;;8.00;99.90;;;;;;5127264;28;20220;-83
2023/10/07 06:23:44;;;;;;;10.60;10.30;;;8.00;99.90;;;;;;5126050;28;20442;-86
2023/10/07 06:29:06;;;;;;;9.97;9.67;;;8.10;99.90;;;;;;5125063;28;20221;-87
2023/10/07 06:31:41;;;;;;;10.07;9.77;;;8.10;99.90;;;;;;5125917;28;20238;-87
2023/10/07 06:34:14;;;;;;;10.10;9.80;;;8.20;99.90;;;;;;5129661;27;20318;-87
2023/10/07 06:36:42;;;;;;;9.90;9.60;;;8.20;99.90;;;;;;5145989;27;20238;-87
2023/10/07 06:39:10;;;;;;;10.27;9.97;;;8.10;99.90;;;;;;5147927;27;20224;-85
2023/10/07 06:41:42;;;;;;;10.03;9.73;;;8.20;99.90;;;;;;5147415;27;20281;-84
2023/10/07 06:44:10;;;;;;;10.23;9.93;;;8.30;99.90;;;;;;5147927;27;20227;-86
2023/10/07 06:46:54;;;;;;;10.33;10.03;;;8.40;99.90;;;;;;5155098;27;20239;-84
2023/10/07 06:49:24;;;;;;;10.40;10.10;;;8.50;99.90;;;;;;5148170;27;20231;-86
2023/10/07 06:51:54;;;;;;;10.00;9.70;;;8.50;99.90;;;;;;5146348;27;20287;-87
2023/10/07 06:54:32;;;;;;;10.13;9.83;;;8.70;99.90;;;;;;5145627;27;20270;-87
2023/10/07 06:57:01;;;;;;;9.90;9.60;;;8.90;99.90;;;;;;5147124;27;20250;-86
2023/10/07 06:59:30;;;;;;;10.00;9.70;;;9.10;99.90;;;;;;5146672;27;20228;-85
2023/10/07 07:02:11;;;;;;;10.00;9.70;;;9.30;99.90;;;;;;5147066;27;20235;-85
2023/10/07 07:04:41;;;;;;;9.80;9.50;;;9.60;99.90;;;;;;5150677;27;20212;-86
2023/10/07 07:07:17;;;;;;;9.90;9.60;;;9.80;99.90;;;;;;5151979;27;20239;-86
2023/10/07 07:09:58;;;;;;;9.80;9.50;;;10.00;99.90;;;;;;5154590;27;20223;-85
2023/10/07 07:12:26;;;;;;;10.17;9.87;;;10.20;99.90;;;;;;5146746;27;20315;-85
2023/10/07 07:14:59;;;;;;;9.97;9.67;;;10.50;99.90;;;;;;5148412;27;20228;-86
2023/10/07 07:17:35;;;;;;;9.90;9.60;;;10.60;99.90;;;;;;5147961;27;20220;-85
2023/10/07 07:23:10;;;;;;;10.13;9.83;;;11.00;99.90;;;;;;5082987;28;20221;-85
2023/10/07 07:25:39;;;;;;;9.93;9.63;;;11.20;99.90;;;;;;5134456;27;20239;-85
2023/10/07 07:28:16;;;;;;;10.00;9.70;;;11.40;99.90;;;;;;5146055;27;20228;-86
2023/10/07 07:30:45;;;;;;;9.80;9.50;;;11.50;99.90;;;;;;5146844;27;20235;-85
2023/10/07 07:33:15;;;;;;;9.90;9.60;;;11.70;99.90;;;;;;5145802;27;20227;-85
2023/10/07 07:38:43;;;;;;;10.00;9.70;;;11.80;99.90;;;;;;5126574;27;20233;-86
2023/10/07 07:43:58;;;;;;;10.10;9.80;;;12.00;99.90;;;;;;5125763;28;20221;-85
2023/10/07 07:46:51;;;;;;;10.37;10.07;;;12.20;99.90;;;;;;5126734;28;20229;-81
2023/10/07 07:49:21;;;;;;;10.27;9.97;;;12.50;99.90;;;;;;5125539;28;20200;-86
2023/10/07 07:51:51;;;;;;;10.50;10.20;;;12.80;99.90;;;;;;5124282;28;20228;-85
2023/10/07 07:54:19;;;;;;;10.50;10.20;;;13.10;99.90;;;;;;5125881;28;20232;-83
2023/10/07 07:56:48;;;;;;;10.23;9.93;;;13.30;99.90;;;;;;5124820;28;20224;-84
2023/10/07 07:59:18;;;;;;;10.50;10.20;;;13.50;99.90;;;;;;5123736;27;20331;-85
2023/10/07 08:01:51;;;;;;;10.50;10.20;;;13.60;99.90;;;;;;5124055;28;20233;-82
2023/10/07 08:04:37;;;;;;;10.10;9.80;;;13.80;99.90;;;;;;5124459;28;20290;-82
2023/10/07 08:07:07;;;;;;;10.50;10.20;;;14.00;99.90;;;;;;5124133;28;20388;-81
2023/10/07 08:09:37;;;;;;;10.40;10.10;;;14.20;99.90;;;;;;5122946;27;20263;-80
2023/10/07 08:12:10;;;;;;;10.47;10.17;;;14.30;99.90;;;;;;5123468;28;20232;-81
2023/10/07 08:14:40;;;;;;;10.57;10.27;;;14.50;99.90;;;;;;5124066;28;20252;-82
2023/10/07 08:17:09;;;;;;;10.30;10.00;;;14.70;99.90;;;;;;5123589;28;20220;-81
2023/10/07 08:19:40;;;;;;;10.38;10.07;;;14.80;99.90;;;;;;5123414;28;20236;-81
2023/10/07 08:22:18;;;;;;;10.48;10.18;;;14.90;99.90;;;;;;5123013;28;20268;-79
2023/10/07 08:24:46;;;;;;;10.55;10.25;;;15.00;99.90;;;;;;5123101;28;20291;-80
2023/10/07 08:29:55;;;;;;;10.52;10.23;;;15.00;99.90;;;;;;5121977;27;20235;-81
2023/10/07 08:32:35;;;;;;;10.30;10.00;;;15.10;99.90;;;;;;5128848;27;20717;-80
2023/10/07 08:35:14;;;;;;;10.20;9.90;;;15.20;99.90;;;;;;5143729;27;20236;-80
2023/10/07 08:37:45;;;;;;;10.50;10.20;;;15.40;99.90;;;;;;5143741;27;20238;-80
2023/10/07 08:40:25;;;;;;;10.38;10.07;;;15.60;99.90;;;;;;5144999;27;20433;-82
2023/10/07 08:42:58;;;;;;;10.57;10.27;;;15.70;99.90;;;;;;5145908;27;20228;-81
2023/10/07 08:45:28;;;;;;;10.35;10.05;;;15.90;99.90;;;;;;5128666;28;20235;-80
2023/10/07 08:48:08;;;;;;;10.20;9.90;;;16.10;99.90;;;;;;5127724;28;20299;-81
2023/10/07 08:50:49;;;;;;;10.60;10.30;;;16.30;99.90;;;;;;5126739;28;20256;-81
2023/10/07 08:53:16;;;;;;;10.40;10.10;;;16.50;99.90;;;;;;5126129;28;20244;-81
2023/10/07 08:55:46;;;;;;;10.65;10.35;;;16.60;99.90;;;;;;5134881;27;20235;-81
2023/10/07 08:58:14;;;;;;;10.45;10.15;;;16.80;99.90;;;;;;5148013;27;20238;-81
2023/10/07 09:00:45;;;;;;;10.52;10.23;;;16.70;99.90;;;;;;5148186;27;20217;-82
2023/10/07 09:03:16;;;;;;;10.48;10.18;;;16.70;99.90;;;;;;5148671;27;20228;-82
2023/10/07 09:05:50;;;;;;;10.38;10.07;;;16.70;99.90;;;;;;5147721;27;20228;-81
2023/10/07 09:08:22;;;;;;;10.35;10.05;;;16.60;99.90;;;;;;5147790;27;20242;-81
2023/10/07 09:10:51;;;;;;;10.45;10.15;;;16.70;99.90;;;;;;5146541;27;20224;-81
2023/10/07 09:13:29;;;;;;;10.60;10.30;;;16.60;99.90;;;;;;5146854;27;20232;-80
2023/10/07 09:15:59;;;;;;;10.38;10.07;;;16.60;99.90;;;;;;5146684;27;20258;-82
2023/10/07 09:18:31;;;;;;;10.35;10.05;;;16.70;99.90;;;;;;5146246;27;20664;-81
2023/10/07 09:21:09;;;;;;;10.30;10.00;;;16.70;99.90;;;;;;5146591;27;20238;-80
2023/10/07 09:23:43;;;;;;;10.43;10.13;;;16.70;99.90;;;;;;5145879;27;20319;-81
2023/10/07 09:26:21;;;;;;;10.55;10.25;;;16.60;99.90;;;;;;5146357;27;20326;-81
2023/10/07 09:28:51;;;;;;;10.55;10.25;;;16.70;99.90;;;;;;5146746;27;20220;-81
2023/10/07 09:31:23;;;;;;;10.45;10.15;;;16.80;99.90;;;;;;5146378;27;20213;-81
2023/10/07 09:33:50;;;;;;;10.45;10.15;;;16.90;99.90;;;;;;5146711;27;20295;-82
2023/10/07 09:36:33;;;;;;;10.50;10.20;;;16.90;99.90;;;;;;5149163;27;20240;-81
2023/10/07 09:42:03;;;;;;;10.50;10.20;;;17.00;99.90;;;;;;5141738;27;20220;-82
2023/10/07 09:44:31;;;;;;;10.50;10.20;;;16.90;99.90;;;;;;5147949;27;20227;-82
2023/10/07 09:47:03;;;;;;;10.48;10.18;;;16.90;99.90;;;;;;5146793;27;20232;-82
2023/10/07 09:49:32;;;;;;;10.48;10.18;;;16.80;99.90;;;;;;5147258;27;20221;-82
2023/10/07 09:52:17;;;;;;;10.40;10.10;;;16.90;99.90;;;;;;5146351;27;20255;-81
2023/10/07 09:57:54;;;;;;;10.27;9.98;;;16.90;99.90;;;;;;5144467;27;20227;-80
2023/10/07 10:00:40;;;;;;;10.20;9.90;;;16.80;99.90;;;;;;5145583;27;20232;-80
2023/10/07 10:03:51;;;;;;;10.10;9.80;;;16.80;99.90;;;;;;5145651;27;20212;-80
2023/10/07 10:06:39;;;;;;;10.30;10.00;;;17.00;99.90;;;;;;5145458;27;20240;-80
2023/10/07 10:09:13;;;;;;;10.50;10.20;;;17.20;99.90;;;;;;5145873;27;20274;-80
2023/10/07 10:11:46;;;;;;;10.25;9.95;;;17.50;99.90;;;;;;5128734;27;20243;-80
2023/10/07 10:14:19;;;;;;;10.40;10.10;;;17.60;99.90;;;;;;5124237;28;20231;-79
2023/10/07 10:16:51;;;;;;;10.10;9.80;;;17.60;99.90;;;;;;5129238;27;20264;-80
2023/10/07 10:19:25;;;;;;;10.57;10.27;;;17.60;99.90;;;;;;5145073;27;20228;-80
2023/10/07 10:21:53;;;;;;;10.50;10.20;;;17.60;99.90;;;;;;5140584;27;20220;-79
2023/10/07 10:24:29;;;;;;;10.50;10.20;;;17.50;99.90;;;;;;5123526;28;20251;-79
2023/10/07 10:27:07;;;;;;;10.48;10.18;;;17.40;99.90;;;;;;5123466;28;20239;-80
2023/10/07 10:29:45;;;;;;;10.48;10.18;;;17.30;99.90;;;;;;5123409;28;20228;-81
2023/10/07 10:32:16;;;;;;;10.35;10.05;;;17.30;99.90;;;;;;5122819;28;20236;-80
2023/10/07 10:34:45;;;;;;;10.18;9.88;;;17.20;99.90;;;;;;5124118;28;20249;-80
2023/10/07 10:37:12;;;;;;;10.43;10.13;;;17.20;99.90;;;;;;5123084;28;20259;-80
2023/10/07 10:39:40;;;;;;;10.30;10.00;;;17.10;99.90;;;;;;5123737;28;20229;-80
2023/10/07 10:42:13;;;;;;;10.18;9.88;;;17.10;99.90;;;;;;5123289;27;20276;-80
2023/10/07 10:44:46;;;;;;;10.32;10.02;;;17.10;99.90;;;;;;5123423;28;20312;-79
2023/10/07 10:47:16;;;;;;;10.35;10.05;;;17.20;99.90;;;;;;5123570;28;20232;-80
2023/10/07 10:49:44;;;;;;;10.60;10.30;;;17.20;99.90;;;;;;5125104;28;20236;-80
2023/10/07 10:52:12;;;;;;;10.73;10.43;;;17.30;99.90;;;;;;5122290;28;20215;-80
2023/10/07 10:54:43;;;;;;;10.70;10.40;;;17.30;99.90;;;;;;5122439;28;20293;-81
2023/10/07 10:57:14;;;;;;;10.70;10.40;;;17.20;99.90;;;;;;5122458;28;20247;-81
2023/10/07 10:59:43;;;;;;;10.60;10.30;;;17.30;99.90;;;;;;5124778;28;20228;-81
2023/10/07 11:02:17;;;;;;;10.65;10.35;;;17.50;99.90;;;;;;5124635;28;20225;-79
2023/10/07 11:04:45;;;;;;;10.50;10.20;;;17.60;99.90;;;;;;5136455;27;20243;-79
2023/10/07 11:07:14;;;;;;;10.25;9.95;;;17.60;99.90;;;;;;5140995;27;20289;-79
2023/10/07 11:09:47;;;;;;;10.45;10.15;;;17.70;99.90;;;;;;5140723;27;20261;-80
2023/10/07 11:12:16;;;;;;;10.40;10.10;;;17.80;99.90;;;;;;5140422;27;20221;-80
2023/10/07 11:14:47;;;;;;;10.50;10.20;;;17.80;99.90;;;;;;5139285;27;20251;-80
2023/10/07 11:17:16;;;;;;;10.60;10.30;;;17.80;99.90;;;;;;5137106;28;20243;-81
2023/10/07 11:19:46;;;;;;;10.77;10.48;;;17.80;99.90;;;;;;5138209;28;20244;-81
2023/10/07 11:22:19;;;;;;;10.80;10.50;;;17.70;99.90;;;;;;5136372;28;20235;-80
2023/10/07 11:24:49;;;;;;;10.77;10.48;;;17.80;99.90;;;;;;5130913;28;20260;-81
2023/10/07 11:27:17;;;;;;;10.68;10.38;;;17.80;99.90;;;;;;5127813;28;20237;-82
2023/10/07 11:29:44;;;;;;;10.57;10.27;;;17.80;99.90;;;;;;5128020;28;20228;-81
2023/10/07 11:32:12;;;;;;;10.80;10.50;;;18.00;99.90;;;;;;5125851;28;20285;-78
2023/10/07 11:34:42;;;;;;;10.80;10.50;;;18.10;99.90;;;;;;5124034;27;20231;-78
2023/10/07 11:37:13;;;;;;;10.80;10.50;;;18.10;99.90;;;;;;5124805;28;20260;-79
2023/10/07 11:39:50;;;;;;;10.80;10.50;;;18.00;99.90;;;;;;5125435;28;20237;-79
2023/10/07 11:42:21;;;;;;;10.70;10.40;;;17.90;99.90;;;;;;5128721;28;20213;-80
2023/10/07 11:44:54;;;;;;;10.45;10.15;;;17.80;99.90;;;;;;5142436;27;20216;-79
2023/10/07 11:47:23;;;;;;;10.50;10.20;;;17.70;99.90;;;;;;5147963;27;20231;-79
2023/10/07 11:49:51;;;;;;;10.43;10.13;;;17.60;99.90;;;;;;5147835;27;20232;-80
2023/10/07 11:52:19;;;;;;;10.40;10.10;;;17.60;99.90;;;;;;5147343;27;20224;-80
2023/10/07 11:54:46;;;;;;;10.75;10.45;;;17.50;99.90;;;;;;5149185;27;20250;-80
2023/10/07 11:57:14;;;;;;;10.48;10.18;;;17.60;99.90;;;;;;5148278;27;20246;-79
2023/10/07 11:59:42;;;;;;;10.50;10.20;;;17.60;99.90;;;;;;5147937;27;20232;-80
2023/10/07 12:02:14;;;;;;;10.70;10.40;;;17.60;99.90;;;;;;5148223;27;20231;-80
2023/10/07 12:04:46;;;;;;;10.60;10.30;;;17.60;99.90;;;;;;5147486;27;20219;-81
2023/10/07 12:07:14;;;;;;;10.40;10.10;;;17.70;99.90;;;;;;5148180;27;20266;-81
2023/10/07 12:09:46;;;;;;;10.60;10.30;;;17.80;99.90;;;;;;5147875;27;20238;-80
2023/10/07 12:12:14;;;;;;;10.65;10.35;;;17.80;99.90;;;;;;5130993;27;20282;-80
2023/10/07 12:14:43;;;;;;;10.57;10.27;;;18.00;99.90;;;;;;5126812;27;20233;-80
2023/10/07 12:17:12;;;;;;;10.55;10.25;;;18.20;99.90;;;;;;5130704;28;20244;-80
2023/10/07 12:19:41;;;;;;;10.40;10.10;;;18.40;99.90;;;;;;5130978;28;21053;-80
2023/10/07 12:22:08;;;;;;;10.30;10.00;;;18.70;99.90;;;;;;5130365;28;20225;-81
2023/10/07 12:24:37;;;;;;;10.55;10.25;;;18.90;99.90;;;;;;5131630;28;20247;-81
2023/10/07 12:27:06;;;;;;;10.57;10.27;;;19.00;99.90;;;;;;5131151;28;20241;-80
2023/10/07 12:29:34;;;;;;;10.27;9.98;;;19.10;99.90;;;;;;5130717;28;20256;-81
2023/10/07 12:32:04;;;;;;;10.40;10.10;;;19.10;99.90;;;;;;5130230;28;20249;-81
2023/10/07 12:34:31;;;;;;;10.30;10.00;;;19.00;99.90;;;;;;5131727;28;20282;-81
2023/10/07 12:37:00;;;;;;;10.60;10.30;;;19.10;99.90;;;;;;5130674;28;20233;-80
2023/10/07 12:39:30;;;;;;;10.13;9.82;;;19.10;99.90;;;;;;5131609;28;20255;-81
2023/10/07 12:41:59;;;;;;;10.40;10.10;;;19.20;99.90;;;;;;5132604;28;20217;-79
2023/10/07 12:44:28;;;;;;;10.60;10.30;;;19.20;99.90;;;;;;5136310;28;20335;-81
2023/10/07 12:46:55;;;;;;;10.20;9.90;;;19.40;99.90;;;;;;5135453;28;20300;-83
2023/10/07 12:49:27;;;;;;;10.30;10.00;;;19.50;99.90;;;;;;5136190;28;20255;-81
2023/10/07 12:51:57;;;;;;;10.20;9.90;;;19.40;99.90;;;;;;5133845;28;20235;-79
2023/10/07 12:54:24;;;;;;;10.30;10.00;;;19.40;99.90;;;;;;5130283;28;20236;-80
2023/10/07 12:56:52;;;;;;;10.35;10.05;;;19.50;99.90;;;;;;5130916;27;20327;-80
2023/10/07 12:59:21;;;;;;;10.57;10.27;;;19.60;99.90;;;;;;5149146;27;21029;-81
2023/10/07 13:01:56;;;;;;;10.00;9.70;;;19.60;99.90;;;;;;5147338;27;20232;-81
2023/10/07 13:04:29;;;;;;;9.90;9.60;;;19.90;99.90;;;;;;5139631;27;20270;-79
2023/10/07 13:07:00;;;;;;;10.13;9.82;;;20.00;99.90;;;;;;5150341;27;20243;-80
2023/10/07 13:09:30;;;;;;;10.18;9.88;;;20.20;99.90;;;;;;5152736;27;20232;-81
2023/10/07 13:11:58;;;;;;;10.50;10.20;;;20.40;99.90;;;;;;5147025;27;20232;-80
2023/10/07 13:14:26;;;;;;;10.20;9.90;;;20.60;99.90;;;;;;5158364;27;20258;-81
2023/10/07 13:16:59;;;;;;;10.27;9.98;;;20.60;99.90;;;;;;5150618;27;20260;-81
2023/10/07 13:19:35;;;;;;;10.32;10.02;;;20.50;99.90;;;;;;5151450;27;20232;-81
2023/10/07 13:22:05;;;;;;;10.40;10.10;;;20.50;99.90;;;;;;5150007;27;20272;-81
2023/10/07 13:24:33;;;;;;;10.27;9.98;;;20.30;99.90;;;;;;5147228;27;20223;-81
2023/10/07 13:27:02;;;;;;;10.40;10.10;;;20.20;99.90;;;;;;5143183;27;20271;-81
2023/10/07 13:29:29;;;;;;;10.15;9.85;;;20.20;99.90;;;;;;5150746;27;20231;-80
2023/10/07 13:31:56;;;;;;;10.13;9.82;;;20.20;99.90;;;;;;5152649;27;20311;-81
2023/10/07 13:34:24;;;;;;;10.00;9.70;;;20.20;99.90;;;;;;5139771;27;20228;-82
2023/10/07 13:36:54;;;;;;;9.95;9.65;;;20.20;99.90;;;;;;5151771;27;20300;-81
2023/10/07 13:39:24;;;;;;;10.00;9.70;;;20.20;99.90;;;;;;5129915;27;20236;-81
2023/10/07 13:41:53;;;;;;;9.73;9.43;;;20.10;99.90;;;;;;5150031;27;20248;-82
2023/10/07 13:44:23;;;;;;;10.05;9.75;;;19.80;99.90;;;;;;5137883;27;20258;-81
2023/10/07 13:46:51;;;;;;;9.90;9.60;;;19.70;99.90;;;;;;5137435;27;20259;-81
2023/10/07 13:49:19;;;;;;;10.27;9.98;;;19.50;99.90;;;;;;5150989;27;20301;-81
2023/10/07 13:51:48;;;;;;;10.23;9.93;;;19.50;99.90;;;;;;5149087;27;20360;-81
2023/10/07 13:54:22;;;;;;;10.18;9.88;;;19.40;99.90;;;;;;5144849;27;20236;-81
2023/10/07 13:56:54;;;;;;;10.10;9.80;;;19.30;99.90;;;;;;5158870;27;20230;-81
2023/10/07 13:59:21;;;;;;;10.10;9.80;;;19.20;99.90;;;;;;5144772;27;20231;-81
2023/10/07 14:01:51;;;;;;;10.10;9.80;;;19.10;99.90;;;;;;5155221;27;20285;-80
2023/10/07 14:04:19;;;;;;;9.90;9.60;;;19.10;99.90;;;;;;5135736;27;20239;-81
2023/10/07 14:06:47;;;;;;;9.80;9.50;;;19.10;99.90;;;;;;5154522;27;20259;-81
2023/10/07 14:09:25;;;;;;;9.90;9.60;;;19.20;99.90;;;;;;5160964;27;20231;-81
2023/10/07 14:11:54;;;;;;;9.77;9.48;;;19.40;99.90;;;;;;5129738;27;20217;-81
2023/10/07 14:14:22;;;;;;;9.90;9.60;;;19.60;99.90;;;;;;5147612;27;20212;-80
2023/10/07 14:16:55;;;;;;;9.68;9.38;;;19.60;99.90;;;;;;5149478;27;20243;-82
2023/10/07 14:19:23;;;;;;;9.93;9.63;;;19.50;99.90;;;;;;5156779;27;20262;-82
2023/10/07 14:21:52;;;;;;;9.70;9.40;;;19.50;99.90;;;;;;5143512;27;20232;-82